Time;durP1;ratioP1;P1;durP2;ratioP2;P2;SDS_P1;SDS_P2;PMS_P1;PMS_P2;Temp;Humidity;BMP_temperature;BMP_pressure;BME280_temperature;BME280_humidity;BME280_pressure;Samples;Min_cycle;Max_cycle;Signal;HPM_P1;HPM_P2
2022/08/20 00:02:13;;;;;;;1.63;1.20;;;;;;;22.76;78.18;100380.44;5095208;28;20501;-73
2022/08/20 00:04:42;;;;;;;1.55;1.42;;;;;;;22.79;78.36;100376.94;5095133;28;20067;-72
2022/08/20 00:07:12;;;;;;;3.63;1.83;;;;;;;22.74;78.40;100374.44;5094880;28;20036;-73
2022/08/20 00:09:40;;;;;;;1.83;1.58;;;;;;;22.79;77.81;100377.72;5095034;28;20573;-72
2022/08/20 00:12:09;;;;;;;2.05;1.83;;;;;;;22.78;77.69;100376.09;5095206;28;20399;-72
2022/08/20 00:14:38;;;;;;;5.30;2.05;;;;;;;22.55;77.81;100379.63;5094899;28;20051;-73
2022/08/20 00:17:06;;;;;;;2.90;1.58;;;;;;;22.55;77.60;100373.28;5094778;28;20044;-72
2022/08/20 00:19:34;;;;;;;2.97;1.75;;;;;;;22.53;77.47;100370.06;5095072;28;20146;-72
2022/08/20 00:22:04;;;;;;;3.25;1.15;;;;;;;22.52;76.91;100369.25;5094310;28;20052;-72
2022/08/20 00:24:33;;;;;;;7.93;1.90;;;;;;;22.43;76.55;100371.41;5094360;28;20075;-72
2022/08/20 00:27:01;;;;;;;2.30;1.20;;;;;;;22.33;77.69;100366.44;5094746;28;20040;-72
2022/08/20 00:29:33;;;;;;;2.67;1.70;;;;;;;22.36;77.79;100366.50;5092639;28;20399;-72
2022/08/20 00:32:00;;;;;;;3.47;1.60;;;;;;;22.38;77.24;100380.09;5083630;28;20044;-72
2022/08/20 00:34:29;;;;;;;3.70;1.58;;;;;;;22.40;77.56;100378.50;5094359;28;20052;-72
2022/08/20 00:36:57;;;;;;;3.40;1.70;;;;;;;22.39;77.15;100384.47;5094879;28;20059;-72
2022/08/20 00:39:25;;;;;;;4.13;1.70;;;;;;;22.26;77.42;100387.41;5094857;28;20048;-72
2022/08/20 00:41:52;;;;;;;3.08;1.73;;;;;;;22.17;77.58;100397.94;5094350;28;20387;-72
2022/08/20 00:44:21;;;;;;;2.38;1.80;;;;;;;22.14;78.10;100393.09;5094113;28;20052;-72
2022/08/20 00:46:50;;;;;;;3.63;1.73;;;;;;;21.70;79.76;100386.53;5094685;28;20040;-72
2022/08/20 00:49:28;;;;;;;4.10;1.77;;;;;;;21.60;80.80;100373.13;5094226;28;20055;-72
2022/08/20 00:52:25;;;;;;;1.60;1.50;;;;;;;21.87;80.75;100374.22;5093610;28;20044;-72
2022/08/20 00:54:58;;;;;;;2.30;1.80;;;;;;;21.98;80.04;100380.00;5085126;28;20055;-72
2022/08/20 00:57:57;;;;;;;2.10;1.90;;;;;;;21.94;80.40;100378.31;5094410;28;20565;-72
2022/08/20 01:00:32;;;;;;;2.58;1.85;;;;;;;21.95;80.43;100375.16;5086746;28;20052;-72
2022/08/20 01:03:00;;;;;;;2.65;2.22;;;;;;;21.96;80.36;100373.19;5094402;28;20410;-72
2022/08/20 01:05:28;;;;;;;1.40;1.30;;;;;;;22.00;79.92;100369.31;5091673;28;20402;-72
2022/08/20 01:07:59;;;;;;;2.53;2.08;;;;;;;21.98;79.88;100368.88;5093485;28;20052;-72
2022/08/20 01:10:33;;;;;;;1.90;1.35;;;;;;;22.01;80.18;100370.13;5093585;28;20052;-72
2022/08/20 01:13:09;;;;;;;2.03;1.77;;;;;;;21.95;80.20;100377.94;5094086;28;20052;-72
2022/08/20 01:15:40;;;;;;;3.95;1.90;;;;;;;21.96;80.07;100376.78;5094006;28;20056;-72
2022/08/20 01:18:17;;;;;;;2.45;1.33;;;;;;;22.02;79.93;100363.38;5093468;28;20055;-73
2022/08/20 01:21:06;;;;;;;1.70;1.58;;;;;;;22.01;79.40;100367.34;5093543;28;20040;-72
2022/08/20 01:23:39;;;;;;;3.20;1.60;;;;;;;22.01;78.87;100368.13;5094287;28;20052;-72
2022/08/20 01:26:10;;;;;;;2.17;1.73;;;;;;;21.98;79.20;100360.50;5079617;28;20500;-72
2022/08/20 01:28:44;;;;;;;1.65;1.50;;;;;;;21.93;79.19;100354.41;5093535;28;20048;-72
2022/08/20 01:31:16;;;;;;;3.40;1.83;;;;;;;21.99;78.83;100350.97;5074971;28;20399;-72
2022/08/20 01:33:47;;;;;;;5.00;1.58;;;;;;;22.01;78.74;100362.56;5093157;28;20044;-72
2022/08/20 01:36:19;;;;;;;1.50;1.23;;;;;;;21.86;79.19;100371.78;5092353;28;20040;-72
2022/08/20 01:38:48;;;;;;;2.00;1.83;;;;;;;21.86;78.90;100369.00;5093115;28;20051;-72
2022/08/20 01:41:21;;;;;;;2.78;1.58;;;;;;;21.83;78.55;100361.34;5092778;28;20410;-72
2022/08/20 01:43:56;;;;;;;3.30;1.38;;;;;;;21.83;78.00;100350.22;5093247;28;20044;-72
2022/08/20 01:46:29;;;;;;;1.42;1.33;;;;;;;21.60;78.81;100342.50;5092970;28;20051;-72
2022/08/20 01:48:59;;;;;;;2.58;1.35;;;;;;;21.74;78.50;100342.06;5093586;28;20048;-72
2022/08/20 01:51:29;;;;;;;1.83;1.30;;;;;;;21.84;77.62;100335.94;5092832;28;20051;-72
2022/08/20 01:53:58;;;;;;;2.47;1.40;;;;;;;21.83;77.80;100339.88;5093090;28;20502;-72
2022/08/20 01:56:30;;;;;;;2.42;1.33;;;;;;;21.86;78.02;100338.34;5092967;28;20051;-72
2022/08/20 01:59:01;;;;;;;2.92;1.63;;;;;;;21.72;78.02;100336.06;5086429;28;20052;-72
2022/08/20 02:01:29;;;;;;;4.45;1.10;;;;;;;21.62;78.55;100338.19;5086090;28;20048;-72
2022/08/20 02:04:01;;;;;;;1.67;1.13;;;;;;;21.61;78.88;100333.78;5093064;28;20039;-72
2022/08/20 02:06:31;;;;;;;1.63;1.35;;;;;;;21.57;78.95;100329.31;5092765;28;20060;-72
2022/08/20 02:09:01;;;;;;;2.45;1.27;;;;;;;21.62;78.59;100329.03;5092773;28;20039;-72
2022/08/20 02:11:31;;;;;;;5.38;1.27;;;;;;;21.70;77.94;100332.84;5092682;28;20044;-72
2022/08/20 02:14:00;;;;;;;1.98;1.48;;;;;;;21.74;77.39;100336.47;5092157;28;20051;-72
2022/08/20 02:16:32;;;;;;;1.27;1.17;;;;;;;21.56;79.68;100341.63;5092167;28;20060;-72
2022/08/20 02:19:08;;;;;;;;;;;;;;;21.63;79.13;100336.22;5092931;28;20395;-72
2022/08/20 02:21:40;;;;;;;2.90;1.35;;;;;;;21.59;78.36;100332.53;5092549;28;20290;-72
2022/08/20 02:24:08;;;;;;;2.45;1.73;;;;;;;21.68;78.66;100327.59;5092133;28;20408;-72
2022/08/20 02:26:37;;;;;;;2.47;1.13;;;;;;;21.80;78.36;100332.25;5092424;28;20051;-71
2022/08/20 02:29:11;;;;;;;1.67;1.55;;;;;;;21.91;77.80;100340.03;5092300;28;20517;-71
2022/08/20 02:31:43;;;;;;;3.67;1.52;;;;;;;21.88;78.88;100327.66;5071698;28;20499;-72
2022/08/20 02:34:33;;;;;;;1.48;1.30;;;;;;;21.78;78.92;100328.22;5071802;28;20526;-71
2022/08/20 02:37:02;;;;;;;4.10;1.05;;;;;;;21.61;78.88;100333.78;5071619;28;20399;-72
2022/08/20 02:39:30;;;;;;;2.70;1.77;;;;;;;21.59;79.16;100322.22;5072158;28;20487;-71
2022/08/20 02:42:02;;;;;;;1.73;1.33;;;;;;;21.69;78.94;100311.66;5070879;28;20055;-72
2022/08/20 02:44:31;;;;;;;3.15;1.27;;;;;;;;;;5071550;28;20491;-72
2022/08/20 02:46:59;;;;;;;1.60;1.33;;;;;;;21.69;78.11;100311.66;5071842;28;20045;-71
2022/08/20 02:49:27;;;;;;;2.15;1.27;;;;;;;21.59;78.95;100310.25;5072694;28;20044;-72
2022/08/20 02:51:56;;;;;;;2.63;1.30;;;;;;;21.64;78.11;100309.97;5070549;28;20045;-71
2022/08/20 02:54:24;;;;;;;6.03;1.40;;;;;;;21.68;78.70;100308.09;5071314;28;20391;-71
2022/08/20 02:56:52;;;;;;;2.20;1.38;;;;;;;21.66;80.40;100304.06;5072773;28;20048;-71
2022/08/20 02:59:19;;;;;;;1.63;1.52;;;;;;;21.62;78.64;100304.78;5072062;28;20044;-71
2022/08/20 03:01:47;;;;;;;2.92;1.50;;;;;;;21.68;77.86;100299.75;5071279;28;20071;-72
2022/08/20 03:04:28;;;;;;;2.28;1.60;;;;;;;21.60;78.65;100293.19;5061412;28;20040;-72
2022/08/20 03:06:58;;;;;;;1.75;1.50;;;;;;;21.68;78.60;100287.78;5071076;28;20053;-71
2022/08/20 03:09:26;;;;;;;1.60;1.45;;;;;;;21.58;79.44;100278.03;5071492;28;20040;-72
2022/08/20 03:11:54;;;;;;;3.83;1.58;;;;;;;21.59;78.25;100301.91;5071484;28;20068;-71
2022/08/20 03:14:22;;;;;;;3.25;1.30;;;;;;;21.57;78.62;100305.06;5070350;28;20031;-72
2022/08/20 03:16:50;;;;;;;1.73;1.60;;;;;;;21.59;78.82;100307.47;5071203;28;20060;-72
2022/08/20 03:19:20;;;;;;;1.35;1.23;;;;;;;21.73;78.23;100316.19;5071582;28;20043;-71
2022/08/20 03:21:48;;;;;;;1.83;1.40;;;;;;;21.68;77.95;100304.50;5071077;28;20044;-72
2022/08/20 03:24:16;;;;;;;1.50;1.40;;;;;;;21.66;78.40;100307.66;5070028;28;20052;-71
2022/08/20 03:26:44;;;;;;;6.18;1.35;;;;;;;21.84;77.67;100304.47;5071472;28;20052;-72
2022/08/20 03:29:12;;;;;;;1.45;1.08;;;;;;;21.84;77.15;100307.25;5072987;28;20041;-71
2022/08/20 03:31:40;;;;;;;1.83;1.30;;;;;;;21.78;77.05;100308.72;5081348;28;20052;-71
2022/08/20 03:34:10;;;;;;;4.32;1.55;;;;;;;21.85;77.27;100317.25;5096069;28;20055;-72
2022/08/20 03:36:38;;;;;;;1.35;1.25;;;;;;;21.75;76.18;100310.25;5095559;28;20047;-71
2022/08/20 03:39:10;;;;;;;1.40;1.25;;;;;;;21.83;75.97;100300.91;5095984;28;20044;-72
2022/08/20 03:41:41;;;;;;;1.60;1.10;;;;;;;21.76;76.26;100300.75;5095434;28;20064;-72
2022/08/20 03:44:09;;;;;;;2.50;1.67;;;;;;;21.81;75.68;100300.47;5095287;28;20066;-71
2022/08/20 03:46:38;;;;;;;1.60;1.45;;;;;;;21.68;76.65;100299.75;5095916;28;20051;-72
2022/08/20 03:49:06;;;;;;;1.95;1.38;;;;;;;21.87;76.91;100298.19;5095501;28;20051;-72
2022/08/20 03:51:34;;;;;;;1.48;1.38;;;;;;;21.85;76.83;100298.53;5095489;28;20063;-72
2022/08/20 03:54:22;;;;;;;0.93;0.93;;;;;;;21.95;75.17;100291.59;5094965;28;20044;-72
2022/08/20 03:56:54;;;;;;;2.88;1.42;;;;;;;21.95;76.72;100297.16;5095304;28;20375;-72
2022/08/20 03:59:22;;;;;;;1.40;0.98;;;;;;;21.86;76.82;100305.72;5094917;28;20048;-72
2022/08/20 04:01:51;;;;;;;2.85;1.40;;;;;;;21.98;76.60;100301.19;5095176;28;20059;-72
2022/08/20 04:04:20;;;;;;;2.25;1.70;;;;;;;22.19;75.87;100303.63;5095190;28;20047;-72
2022/08/20 04:06:51;;;;;;;2.47;1.70;;;;;;;22.05;75.51;100306.94;5094907;28;20063;-72
2022/08/20 04:09:19;;;;;;;2.17;1.63;;;;;;;22.14;75.75;100326.22;5095420;28;20502;-72
2022/08/20 04:11:48;;;;;;;2.88;1.48;;;;;;;22.26;75.69;100323.31;5094704;28;20048;-72
2022/08/20 04:14:15;;;;;;;2.47;1.80;;;;;;;22.23;75.00;100312.88;5095035;28;20044;-72
2022/08/20 04:16:47;;;;;;;2.75;1.42;;;;;;;22.25;75.68;100318.88;5094575;28;20055;-72
2022/08/20 04:19:15;;;;;;;2.35;1.77;;;;;;;22.22;75.74;100311.25;5094682;28;20048;-72
2022/08/20 04:21:47;;;;;;;1.38;1.27;;;;;;;22.10;76.06;100309.41;5094833;28;20052;-72
2022/08/20 04:24:15;;;;;;;2.67;1.75;;;;;;;21.97;77.02;100305.97;5094586;28;20044;-72
2022/08/20 04:27:01;;;;;;;1.77;1.50;;;;;;;21.94;76.29;100311.47;5094910;28;20040;-72
2022/08/20 04:29:31;;;;;;;2.15;1.63;;;;;;;22.14;74.87;100310.31;5093040;28;20040;-72
2022/08/20 04:32:05;;;;;;;2.60;1.63;;;;;;;22.39;74.28;100315.56;5083211;28;20060;-72
2022/08/20 04:34:33;;;;;;;1.38;1.27;;;;;;;22.23;74.93;100318.44;5094497;28;20048;-72
2022/08/20 04:37:02;;;;;;;3.85;1.33;;;;;;;22.13;75.43;100314.25;5094900;28;20044;-72
2022/08/20 04:39:30;;;;;;;1.30;1.20;;;;;;;22.09;75.79;100309.81;5094029;28;20051;-72
2022/08/20 04:41:58;;;;;;;5.13;1.80;;;;;;;21.89;76.84;100312.53;5094266;28;20078;-72
2022/08/20 04:44:27;;;;;;;2.92;1.35;;;;;;;21.98;76.54;100315.94;5094210;28;20048;-72
2022/08/20 04:46:55;;;;;;;2.42;1.50;;;;;;;22.01;76.54;100306.84;5094516;28;20051;-72
2022/08/20 04:49:25;;;;;;;2.95;1.48;;;;;;;22.13;76.13;100319.03;5094060;28;20494;-72
2022/08/20 04:51:53;;;;;;;2.38;1.35;;;;;;;22.07;75.88;100320.47;5094225;28;20048;-72
2022/08/20 04:54:21;;;;;;;2.58;1.50;;;;;;;22.12;76.15;100323.81;5093973;28;20048;-72
2022/08/20 04:56:50;;;;;;;7.32;1.95;;;;;;;22.05;76.12;100320.06;5087474;28;20048;-72
2022/08/20 04:59:18;;;;;;;3.17;1.55;;;;;;;21.92;77.45;100322.97;5083379;28;20074;-72
2022/08/20 05:01:46;;;;;;;2.33;1.48;;;;;;;21.86;77.56;100322.44;5089200;28;20056;-72
2022/08/20 05:04:14;;;;;;;2.28;2.08;;;;;;;21.83;77.40;100333.50;5094156;28;20039;-72
2022/08/20 05:06:41;;;;;;;5.53;2.20;;;;;;;21.78;77.75;100331.81;5093695;28;20051;-71
2022/08/20 05:09:09;;;;;;;5.78;1.95;;;;;;;21.90;76.85;100328.09;5094049;28;20040;-72
2022/08/20 05:11:38;;;;;;;2.88;2.08;;;;;;;22.00;77.12;100332.31;5080495;28;20040;-75
2022/08/20 05:14:07;;;;;;;1.55;1.42;;;;;;;22.24;75.32;100336.00;5066904;28;20055;-76
2022/08/20 05:16:37;;;;;;;1.25;1.10;;;;;;;22.42;74.86;100337.16;5076227;28;20044;-76
2022/08/20 05:19:08;;;;;;;2.58;1.63;;;;;;;22.85;73.34;100338.38;5092915;28;20067;-76
2022/08/20 05:21:37;;;;;;;4.80;1.60;;;;;;;22.95;71.95;100340.56;5082456;28;20056;-76
2022/08/20 05:24:06;;;;;;;2.17;1.95;;;;;;;23.00;71.93;100336.63;5091542;28;20055;-76
2022/08/20 05:26:34;;;;;;;1.83;1.40;;;;;;;23.14;71.81;100330.50;5093208;28;20410;-76
2022/08/20 05:29:04;;;;;;;5.82;1.95;;;;;;;23.39;70.37;100328.16;5079419;28;20060;-76
2022/08/20 05:31:33;;;;;;;3.42;1.52;;;;;;;23.41;70.05;100319.41;5078218;28;20052;-76
2022/08/20 05:34:08;;;;;;;2.58;1.88;;;;;;;23.22;70.91;100333.03;5093834;28;20044;-76
2022/08/20 05:36:46;;;;;;;5.20;1.83;;;;;;;23.23;71.06;100329.06;5093553;28;20040;-76
2022/08/20 05:39:19;;;;;;;2.00;1.35;;;;;;;23.29;70.62;100332.38;5093542;28;20044;-76
2022/08/20 05:41:49;;;;;;;1.67;1.58;;;;;;;23.09;70.62;100334.44;5090259;28;20052;-76
2022/08/20 05:44:18;;;;;;;4.05;1.75;;;;;;;23.19;71.18;100333.00;5083217;28;20487;-77
2022/08/20 05:46:47;;;;;;;3.70;1.63;;;;;;;23.25;70.39;100327.91;5091678;28;20036;-77
2022/08/20 05:49:18;;;;;;;2.35;1.75;;;;;;;23.47;70.16;100343.06;5088154;28;20056;-77
2022/08/20 05:51:49;;;;;;;2.55;1.95;;;;;;;23.57;69.22;100336.00;5091868;28;20051;-76
2022/08/20 05:54:18;;;;;;;2.15;1.27;;;;;;;23.60;70.04;100332.47;5093379;28;20040;-77
2022/08/20 05:56:46;;;;;;;1.60;1.48;;;;;;;23.79;69.29;100334.34;5089544;28;20398;-76
2022/08/20 05:59:14;;;;;;;2.38;1.65;;;;;;;24.08;68.44;100331.97;5088489;28;20059;-76
2022/08/20 06:01:42;;;;;;;2.38;1.40;;;;;;;24.44;67.55;100337.22;5092620;28;20056;-76
2022/08/20 06:04:30;;;;;;;4.75;1.92;;;;;;;24.23;67.26;100341.34;5093271;28;20039;-77
2022/08/20 06:07:05;;;;;;;2.10;1.67;;;;;;;24.18;66.00;100341.69;5066569;28;20056;-77
2022/08/20 06:09:35;;;;;;;2.25;1.33;;;;;;;24.12;66.72;100340.41;5089931;28;20044;-77
2022/08/20 06:12:05;;;;;;;3.85;1.42;;;;;;;23.98;66.27;100332.59;5092186;28;20060;-77
2022/08/20 06:14:33;;;;;;;1.40;1.30;;;;;;;23.92;65.32;100334.13;5085175;28;20055;-76
2022/08/20 06:17:13;;;;;;;1.48;1.02;;;;;;;24.20;65.17;100336.53;5076260;28;20045;-76
2022/08/20 06:19:43;;;;;;;1.90;1.77;;;;;;;24.40;63.35;100345.53;5092858;28;20529;-77
2022/08/20 06:22:13;;;;;;;2.75;1.08;;;;;;;24.50;63.62;100352.47;5092667;28;20051;-76
2022/08/20 06:24:46;;;;;;;3.50;1.58;;;;;;;24.72;63.27;100349.13;5077646;28;20051;-76
2022/08/20 06:27:15;;;;;;;0.98;0.88;;;;;;;24.66;63.71;100357.03;5074274;28;20045;-76
2022/08/20 06:29:43;;;;;;;1.23;1.00;;;;;;;24.74;63.43;100349.53;5080304;28;20049;-77
2022/08/20 06:32:12;;;;;;;1.27;0.90;;;;;;;24.69;61.78;100354.25;5073847;28;20055;-76
2022/08/20 06:34:40;;;;;;;3.65;1.15;;;;;;;24.77;61.96;100360.75;5078382;28;20049;-77
2022/08/20 06:37:22;;;;;;;1.80;0.80;;;;;;;24.81;61.05;100364.44;5086589;28;20049;-77
2022/08/20 06:40:05;;;;;;;1.23;0.90;;;;;;;25.00;61.72;100368.22;5090352;28;20051;-76
2022/08/20 06:42:34;;;;;;;2.30;1.10;;;;;;;24.93;60.71;100368.94;5075220;28;20052;-76
2022/08/20 06:45:05;;;;;;;2.38;0.88;;;;;;;24.69;61.99;100371.06;5092315;28;20032;-76
2022/08/20 06:47:33;;;;;;;2.65;1.15;;;;;;;24.77;60.72;100373.91;5092164;28;20055;-76
2022/08/20 06:50:02;;;;;;;4.38;1.58;;;;;;;24.80;61.69;100381.56;5092064;28;20478;-75
2022/08/20 06:52:29;;;;;;;2.97;1.25;;;;;;;24.91;61.77;100368.53;5092322;28;20044;-76
2022/08/20 06:55:18;;;;;;;2.05;1.48;;;;;;;25.02;61.04;100371.41;5089474;28;20051;-76
2022/08/20 06:57:47;;;;;;;1.58;1.17;;;;;;;25.02;60.90;100379.03;5092311;28;20517;-76
2022/08/20 07:00:17;;;;;;;2.40;1.60;;;;;;;25.22;60.96;100369.22;5079850;28;20036;-76
2022/08/20 07:02:51;;;;;;;1.50;1.40;;;;;;;25.15;61.03;100371.13;5090780;28;20047;-77
2022/08/20 07:05:19;;;;;;;3.78;1.70;;;;;;;25.26;60.62;100374.06;5091383;28;20052;-76
2022/08/20 07:07:49;;;;;;;4.20;1.65;;;;;;;25.12;59.87;100375.50;5080976;28;20040;-76
2022/08/20 07:10:19;;;;;;;3.42;1.52;;;;;;;25.30;62.40;100378.47;5083757;28;20391;-76
2022/08/20 07:12:49;;;;;;;1.45;1.30;;;;;;;25.54;60.52;100378.28;5091608;28;20067;-76
2022/08/20 07:15:20;;;;;;;3.63;2.15;;;;;;;25.57;59.81;100380.34;5090334;28;20044;-76
2022/08/20 07:17:54;;;;;;;4.07;1.70;;;;;;;25.42;59.73;100382.19;5092019;28;20052;-76
2022/08/20 07:20:28;;;;;;;1.25;1.08;;;;;;;25.34;59.92;100381.31;5091923;28;20040;-76
2022/08/20 07:22:56;;;;;;;2.35;1.45;;;;;;;25.44;60.71;100385.38;5090077;28;20093;-76
2022/08/20 07:25:26;;;;;;;4.63;1.42;;;;;;;25.45;60.21;100375.78;5066010;28;20411;-76
2022/08/20 07:28:00;;;;;;;1.77;1.35;;;;;;;25.39;60.17;100383.75;5077405;28;20036;-76
2022/08/20 07:33:29;;;;;;;3.50;1.42;;;;;;;25.53;60.86;100379.47;5071695;28;20041;-76
2022/08/20 07:35:59;;;;;;;1.30;1.20;;;;;;;25.73;59.83;100380.84;5076460;28;20060;-76
2022/08/20 07:38:29;;;;;;;5.95;1.52;;;;;;;25.71;59.57;100383.22;5076891;28;20040;-76
2022/08/20 07:41:07;;;;;;;3.42;1.42;;;;;;;26.01;59.15;100379.41;5073822;28;20048;-76
2022/08/20 07:43:35;;;;;;;4.72;1.63;;;;;;;26.13;58.82;100385.88;5091753;28;20044;-76
2022/08/20 07:46:08;;;;;;;1.70;1.38;;;;;;;26.14;58.52;100388.31;5091696;28;20063;-77
2022/08/20 07:48:38;;;;;;;2.13;1.38;;;;;;;26.27;58.05;100386.00;5091742;28;20131;-76
2022/08/20 07:51:08;;;;;;;2.88;1.50;;;;;;;26.47;58.14;100399.72;5079932;28;20047;-76
2022/08/20 07:53:38;;;;;;;2.22;1.05;;;;;;;26.63;57.57;100395.78;5078503;28;20506;-77
2022/08/20 07:56:10;;;;;;;3.53;1.48;;;;;;;26.51;56.42;100402.53;5091625;28;20052;-76
2022/08/20 07:58:48;;;;;;;6.97;1.63;;;;;;;26.72;56.40;100398.19;5077408;28;20052;-76
2022/08/20 08:01:20;;;;;;;2.45;1.60;;;;;;;26.84;57.74;100397.84;5079864;28;20395;-76
2022/08/20 08:03:49;;;;;;;6.03;1.25;;;;;;;26.80;56.53;100389.41;5089572;28;20052;-76
2022/08/20 08:06:21;;;;;;;3.20;1.02;;;;;;;27.00;55.50;100399.47;5091438;28;20044;-76
2022/08/20 08:09:03;;;;;;;1.30;1.17;;;;;;;26.92;55.68;100396.66;5089963;28;20044;-76
2022/08/20 08:11:33;;;;;;;1.25;1.15;;;;;;;27.04;55.70;100391.88;5091194;28;20045;-76
2022/08/20 08:14:05;;;;;;;1.75;1.20;;;;;;;27.14;55.95;100404.31;5106607;28;20044;-77
2022/08/20 08:16:34;;;;;;;1.15;0.88;;;;;;;27.12;55.47;100401.13;5080552;28;20053;-76
2022/08/20 08:19:05;;;;;;;2.78;1.25;;;;;;;26.89;54.81;100405.06;5093010;28;20044;-76
2022/08/20 08:21:33;;;;;;;2.88;1.05;;;;;;;27.02;55.31;100406.31;5093773;28;20044;-76
2022/08/20 08:24:02;;;;;;;1.38;0.95;;;;;;;26.95;55.22;100406.31;5094496;28;20056;-76
2022/08/20 08:26:30;;;;;;;1.95;1.23;;;;;;;26.89;55.57;100408.69;5094792;28;20048;-76
2022/08/20 08:29:01;;;;;;;1.60;1.10;;;;;;;26.88;54.60;100401.44;5095362;28;20059;-76
2022/08/20 08:31:29;;;;;;;1.17;0.93;;;;;;;26.89;53.55;100407.88;5080541;28;20047;-77
2022/08/20 08:33:57;;;;;;;1.83;0.70;;;;;;;26.98;53.30;100399.91;5094500;28;20048;-76
2022/08/20 08:36:26;;;;;;;1.92;0.98;;;;;;;26.88;52.49;100398.63;5083625;28;20060;-76
2022/08/20 08:38:55;;;;;;;4.40;1.10;;;;;;;27.01;53.60;100412.31;5086447;28;20056;-76
2022/08/20 08:41:36;;;;;;;1.33;0.75;;;;;;;27.09;53.64;100411.16;5086094;28;20610;-76
2022/08/20 08:44:20;;;;;;;2.20;0.80;;;;;;;26.96;53.02;100414.34;5087381;28;20052;-75
2022/08/20 08:46:55;;;;;;;1.52;1.27;;;;;;;27.06;53.82;100415.56;5089931;28;20495;-76
2022/08/20 08:49:29;;;;;;;2.95;1.10;;;;;;;27.22;54.06;100420.00;5086025;28;20486;-76
2022/08/20 08:52:14;;;;;;;0.98;0.90;;;;;;;27.22;54.34;100426.41;5080343;28;20048;-76
2022/08/20 08:54:49;;;;;;;2.03;1.02;;;;;;;27.28;53.68;100417.59;5088701;28;20410;-76
2022/08/20 08:57:18;;;;;;;1.65;1.17;;;;;;;27.42;53.21;100419.59;5085741;28;20398;-76
2022/08/20 08:59:58;;;;;;;1.25;1.10;;;;;;;27.52;51.93;100424.44;5082353;28;20454;-76
2022/08/20 09:02:34;;;;;;;1.52;1.17;;;;;;;27.57;50.41;100424.00;5063372;28;20056;-76
2022/08/20 09:05:12;;;;;;;3.08;0.98;;;;;;;27.62;51.26;100415.22;5089140;28;20074;-76
2022/08/20 09:07:44;;;;;;;5.18;1.23;;;;;;;27.68;50.74;100417.63;5086856;28;20033;-76
2022/08/20 09:10:12;;;;;;;4.15;1.23;;;;;;;27.63;51.20;100416.81;5079881;28;20048;-76
2022/08/20 09:12:40;;;;;;;3.92;0.95;;;;;;;27.89;50.96;100423.22;5094089;28;20047;-76
2022/08/20 09:15:15;;;;;;;2.65;0.93;;;;;;;28.09;50.58;100416.38;5089310;28;20048;-76
2022/08/20 09:17:43;;;;;;;1.85;1.00;;;;;;;28.44;50.52;100417.47;5089103;28;20040;-79
2022/08/20 09:20:11;;;;;;;3.78;1.63;;;;;;;28.81;49.62;100420.94;5086146;28;20048;-74
2022/08/20 09:22:39;;;;;;;1.02;0.88;;;;;;;28.86;47.31;100417.72;5075245;28;20060;-74
2022/08/20 09:25:08;;;;;;;1.73;1.08;;;;;;;29.00;47.61;100424.47;5075290;28;20052;-75
2022/08/20 09:27:36;;;;;;;2.22;0.90;;;;;;;29.02;47.15;100428.47;5092035;28;20048;-75
2022/08/20 09:30:10;;;;;;;3.70;1.30;;;;;;;28.93;47.51;100419.69;5085783;28;20048;-76
2022/08/20 09:32:38;;;;;;;1.60;0.88;;;;;;;28.95;48.93;100417.28;5085968;28;20051;-75
2022/08/20 09:35:07;;;;;;;3.38;1.30;;;;;;;29.10;50.02;100415.16;5093577;28;20402;-75
2022/08/20 09:37:36;;;;;;;2.00;1.10;;;;;;;29.19;50.83;100412.69;5093503;28;20197;-75
2022/08/20 09:40:07;;;;;;;4.25;1.30;;;;;;;29.36;49.49;100412.94;5090974;28;20045;-75
2022/08/20 09:42:37;;;;;;;1.55;1.15;;;;;;;29.47;49.40;100408.03;5078846;28;20053;-75
2022/08/20 09:45:10;;;;;;;2.03;1.27;;;;;;;29.60;49.10;100407.53;5088432;28;20044;-75
2022/08/20 09:47:39;;;;;;;2.63;1.30;;;;;;;29.45;49.35;100416.13;5091262;28;20040;-75
2022/08/20 09:50:28;;;;;;;2.30;1.50;;;;;;;29.34;50.08;100409.75;5090352;28;20071;-75
2022/08/20 09:52:58;;;;;;;5.30;1.38;;;;;;;29.52;50.36;100406.03;5078634;28;20475;-75
2022/08/20 09:55:37;;;;;;;1.55;1.45;;;;;;;29.64;47.42;100411.16;5071593;28;20060;-75
2022/08/20 09:58:11;;;;;;;2.13;1.30;;;;;;;29.64;45.37;100399.88;5065305;28;20052;-75
2022/08/20 10:00:40;;;;;;;2.45;1.20;;;;;;;29.49;44.08;100404.84;5072879;27;20075;-75
2022/08/20 10:03:08;;;;;;;1.88;1.08;;;;;;;29.75;44.85;100400.56;5071896;28;20049;-75
2022/08/20 10:05:36;;;;;;;2.10;1.00;;;;;;;29.85;45.62;100398.03;5072074;28;20048;-75
2022/08/20 10:08:06;;;;;;;2.22;1.35;;;;;;;29.76;44.85;100402.16;5071795;28;20071;-74
2022/08/20 10:10:35;;;;;;;4.30;1.08;;;;;;;30.07;44.59;100397.81;5072259;28;20044;-75
2022/08/20 10:13:03;;;;;;;1.40;1.23;;;;;;;30.40;44.18;100389.81;5072123;28;20041;-75
2022/08/20 10:15:31;;;;;;;2.53;0.95;;;;;;;30.45;44.86;100395.00;5072096;28;20048;-74
2022/08/20 10:18:06;;;;;;;1.38;1.15;;;;;;;30.52;44.57;100392.06;5071514;28;20045;-75
2022/08/20 10:20:35;;;;;;;1.02;0.90;;;;;;;30.45;42.88;100386.53;5072114;28;20048;-75
2022/08/20 10:23:03;;;;;;;4.35;1.05;;;;;;;30.62;44.43;100393.16;5072144;28;20371;-75
2022/08/20 10:25:32;;;;;;;0.80;0.80;;;;;;;30.83;43.11;100385.63;5067413;28;20051;-75
2022/08/20 10:28:00;;;;;;;3.67;0.95;;;;;;;30.86;40.68;100381.16;5071323;28;20052;-75
2022/08/20 10:30:30;;;;;;;0.88;0.55;;;;;;;30.70;40.12;100379.78;5070964;28;20048;-75
2022/08/20 10:33:01;;;;;;;0.80;0.80;;;;;;;30.90;41.51;100379.06;5069144;28;20502;-75
2022/08/20 10:35:33;;;;;;;0.90;0.57;;;;;;;30.65;40.68;100374.56;5071318;28;20056;-74
2022/08/20 10:38:01;;;;;;;1.27;0.77;;;;;;;30.89;38.24;100377.47;5071487;28;20051;-75
2022/08/20 10:40:29;;;;;;;2.00;0.70;;;;;;;31.17;39.26;100372.63;5071446;28;20040;-75
2022/08/20 10:42:57;;;;;;;3.58;0.60;;;;;;;31.13;39.13;100378.31;5071305;28;20503;-75
2022/08/20 10:45:24;;;;;;;1.08;0.63;;;;;;;30.98;40.06;100372.09;5072136;28;20040;-75
2022/08/20 10:47:53;;;;;;;0.52;0.52;;;;;;;31.14;39.45;100376.28;5067191;28;20044;-75
2022/08/20 10:50:21;;;;;;;1.13;0.98;;;;;;;31.14;37.62;100376.28;5070332;28;20032;-75
2022/08/20 10:52:49;;;;;;;1.30;1.10;;;;;;;31.28;38.03;100370.44;5072233;28;20055;-75
2022/08/20 10:55:17;;;;;;;1.45;0.95;;;;;;;31.30;39.72;100376.47;5070384;28;20045;-75
2022/08/20 10:57:46;;;;;;;3.55;1.48;;;;;;;31.38;38.05;100377.94;5071071;28;20052;-74
2022/08/20 11:00:16;;;;;;;1.00;0.60;;;;;;;31.60;36.79;100371.91;5071408;28;20056;-75
2022/08/20 11:02:56;;;;;;;0.60;0.60;;;;;;;31.79;37.11;100375.19;5070801;28;20049;-74
2022/08/20 11:05:24;;;;;;;1.15;0.55;;;;;;;31.89;36.19;100376.25;5072666;28;20055;-75
2022/08/20 11:07:53;;;;;;;0.70;0.63;;;;;;;31.99;37.25;100378.09;5071202;28;20048;-76
2022/08/20 11:10:28;;;;;;;3.53;0.70;;;;;;;32.00;38.12;100374.03;5071535;28;20044;-77
2022/08/20 11:13:01;;;;;;;2.20;0.70;;;;;;;31.69;38.18;100364.88;5069161;28;20048;-80
2022/08/20 11:15:35;;;;;;;0.75;0.63;;;;;;;31.61;37.40;100367.03;5036767;28;20053;-78
2022/08/20 11:18:04;;;;;;;0.68;0.60;;;;;;;31.60;38.13;100354.94;5068796;28;20483;-79
2022/08/20 11:20:39;;;;;;;3.03;1.20;;;;;;;31.48;38.44;100361.22;5074529;28;20372;-79
2022/08/20 11:23:16;;;;;;;0.90;0.57;;;;;;;31.68;38.97;100361.28;5070026;28;20057;-78
2022/08/20 11:25:46;;;;;;;0.60;0.57;;;;;;;31.80;37.75;100357.00;5070215;28;20049;-79
2022/08/20 11:28:15;;;;;;;0.82;0.52;;;;;;;31.82;38.63;100362.22;5067825;28;20495;-79
2022/08/20 11:30:59;;;;;;;1.77;0.57;;;;;;;31.86;38.74;100357.34;5067870;28;20052;-79
2022/08/20 11:33:28;;;;;;;0.57;0.55;;;;;;;31.70;37.80;100360.81;5060115;28;20048;-79
2022/08/20 11:35:56;;;;;;;0.40;0.40;;;;;;;31.78;38.08;100357.41;5078686;28;20041;-79
2022/08/20 11:38:24;;;;;;;2.00;0.88;;;;;;;32.10;38.26;100354.44;5052420;28;20040;-79
2022/08/20 11:40:53;;;;;;;0.63;0.52;;;;;;;31.98;36.87;100358.72;5070473;28;20051;-79
2022/08/20 11:43:21;;;;;;;1.33;0.50;;;;;;;31.78;37.87;100362.28;5049947;28;20044;-79
2022/08/20 11:45:54;;;;;;;0.52;0.40;;;;;;;31.85;38.39;100353.69;5070455;28;20044;-79
2022/08/20 11:48:22;;;;;;;1.33;0.60;;;;;;;32.15;37.55;100357.53;5068715;28;20040;-79